createdAt,value
2019-01-17T00:02:50.782Z,22.73
2019-01-17T00:09:11.587Z,20.70
2019-01-17T00:15:15.749Z,19.73
2019-01-17T00:21:19.803Z,18.98
2019-01-17T00:27:24.156Z,21.42
2019-01-17T00:33:37.206Z,20.37
2019-01-17T00:40:02.139Z,20.80
2019-01-17T00:46:24.755Z,23.15
2019-01-17T00:52:28.816Z,20.32
2019-01-17T00:58:38.591Z,19.50
2019-01-17T01:04:42.725Z,20.00
2019-01-17T01:10:46.838Z,19.55
2019-01-17T01:17:12.294Z,20.10
2019-01-17T01:23:22.335Z,20.65
2019-01-17T01:29:29.255Z,23.70
2019-01-17T01:35:39.302Z,23.07
2019-01-17T01:41:49.392Z,18.70
2019-01-17T01:47:59.591Z,22.22
2019-01-17T01:54:01.707Z,19.05
2019-01-17T02:00:05.170Z,19.70
2019-01-17T02:06:08.395Z,16.65
2019-01-17T02:12:10.738Z,23.70
2019-01-17T02:18:14.342Z,22.60
2019-01-17T02:24:16.540Z,18.92
2019-01-17T02:30:18.800Z,21.00
2019-01-17T02:36:21.129Z,21.00
2019-01-17T02:42:24.328Z,18.57
2019-01-17T02:48:26.750Z,17.05
2019-01-17T02:54:35.600Z,20.37
2019-01-17T03:00:33.252Z,22.48
2019-01-17T03:06:35.383Z,18.87
2019-01-17T03:12:37.679Z,19.90
2019-01-17T03:18:39.983Z,19.60
2019-01-17T03:24:43.138Z,22.05
2019-01-17T03:30:45.674Z,18.73
2019-01-17T03:36:48.078Z,21.50
2019-01-17T03:42:50.351Z,19.77
2019-01-17T03:48:53.674Z,21.25
2019-01-17T03:54:55.994Z,18.98
2019-01-17T04:00:58.164Z,19.77
2019-01-17T04:07:00.302Z,22.82
2019-01-17T04:13:02.627Z,22.95
2019-01-17T04:19:04.821Z,22.60
2019-01-17T04:25:07.888Z,22.22
2019-01-17T04:31:10.003Z,21.17
2019-01-17T04:37:12.187Z,52.98
2019-01-17T04:43:15.830Z,44.50
2019-01-17T04:49:18.027Z,31.97
2019-01-17T04:55:20.151Z,31.25
2019-01-17T05:01:22.531Z,35.05
2019-01-17T05:07:25.758Z,28.00
2019-01-17T05:13:30.086Z,23.77
2019-01-17T05:19:32.201Z,20.68
2019-01-17T05:25:34.307Z,22.42
2019-01-17T05:31:37.670Z,20.77
2019-01-17T05:37:39.774Z,22.42
2019-01-17T05:43:41.923Z,21.85
2019-01-17T05:49:45.194Z,22.45
2019-01-17T05:55:48.145Z,20.15
2019-01-17T06:01:50.465Z,23.87
2019-01-17T06:07:54.182Z,21.65
2019-01-17T06:13:57.563Z,24.35
2019-01-17T06:20:00.057Z,22.48
2019-01-17T06:26:02.245Z,23.27
2019-01-17T06:32:04.824Z,23.42
2019-01-17T06:38:07.224Z,28.87
2019-01-17T06:44:20.220Z,32.63
2019-01-17T06:50:19.955Z,46.25
2019-01-17T06:56:22.259Z,33.63
2019-01-17T07:02:24.585Z,28.95
2019-01-17T07:08:26.862Z,27.20
2019-01-17T07:14:29.255Z,32.65
2019-01-17T07:20:32.098Z,24.35
2019-01-17T07:26:34.282Z,29.80
2019-01-17T07:32:36.594Z,28.73
2019-01-17T07:38:38.736Z,24.77
2019-01-17T07:44:40.836Z,23.57
2019-01-17T07:50:43.365Z,33.40
2019-01-17T07:56:45.747Z,53.83
2019-01-17T08:02:47.951Z,31.42
2019-01-17T08:08:50.243Z,29.37
2019-01-17T08:14:52.702Z,27.22
2019-01-17T08:20:54.923Z,26.20
2019-01-17T08:26:57.151Z,25.97
2019-01-17T08:32:59.927Z,28.15
2019-01-17T08:39:04.187Z,56.45
2019-01-17T08:45:07.018Z,36.68
2019-01-17T08:51:09.255Z,30.50
2019-01-17T08:57:11.399Z,28.32
2019-01-17T09:03:13.824Z,26.70
2019-01-17T09:09:16.092Z,26.90
2019-01-17T09:15:20.080Z,30.02
2019-01-17T09:21:22.453Z,32.98
2019-01-17T09:27:25.071Z,35.52
2019-01-17T09:33:27.223Z,33.92
2019-01-17T09:39:29.682Z,29.77
2019-01-17T09:45:32.031Z,33.50
2019-01-17T09:51:34.824Z,36.25
2019-01-17T09:57:37.156Z,30.57
2019-01-17T10:03:39.391Z,31.93
2019-01-17T10:09:41.623Z,35.08
2019-01-17T10:15:48.176Z,36.28
2019-01-17T10:22:38.708Z,36.05
2019-01-17T10:29:30.706Z,33.02
2019-01-17T10:36:11.427Z,33.42
2019-01-17T10:43:01.522Z,33.85
2019-01-17T10:50:11.199Z,32.88
2019-01-17T10:57:01.284Z,33.05
2019-01-17T11:03:50.898Z,25.30
2019-01-17T11:10:11.210Z,33.45
2019-01-17T11:16:45.951Z,29.00
2019-01-17T11:23:32.240Z,28.83
2019-01-17T11:30:01.436Z,28.05
2019-01-17T11:36:35.830Z,26.65
2019-01-17T11:43:06.359Z,26.25
2019-01-17T11:49:57.374Z,26.33
2019-01-17T11:56:47.424Z,29.07
2019-01-17T12:03:40.635Z,20.77
2019-01-17T12:09:43.023Z,17.55
2019-01-17T12:15:47.485Z,15.28
2019-01-17T12:21:50.857Z,16.00
2019-01-17T12:27:52.977Z,16.55
2019-01-17T12:33:55.132Z,14.78
2019-01-17T12:39:59.346Z,14.47
2019-01-17T12:46:02.639Z,14.80
2019-01-17T12:52:04.797Z,12.85
2019-01-17T12:58:06.898Z,12.88
2019-01-17T13:04:09.143Z,15.00
2019-01-17T13:10:11.650Z,11.55
2019-01-17T13:16:15.309Z,11.15
2019-01-17T13:22:17.743Z,15.03
2019-01-17T13:28:19.859Z,8.98
2019-01-17T13:34:22.185Z,12.68
2019-01-17T13:40:25.426Z,11.48
2019-01-17T13:46:27.576Z,12.50
2019-01-17T13:52:29.848Z,11.25
2019-01-17T13:58:32.066Z,12.53
2019-01-17T14:04:35.227Z,15.20
2019-01-17T14:10:37.683Z,14.98
2019-01-17T14:16:40.699Z,10.00
2019-01-17T14:22:44.546Z,9.20
2019-01-17T14:28:49.121Z,9.50
2019-01-17T14:34:51.668Z,7.83
2019-01-17T14:40:54.318Z,9.33
2019-01-17T14:46:56.456Z,11.05
2019-01-17T14:52:58.919Z,11.48
2019-01-17T14:59:01.458Z,9.13
2019-01-17T15:05:05.162Z,8.43
2019-01-17T15:11:08.777Z,15.32
2019-01-17T15:17:11.088Z,9.83
2019-01-17T15:23:13.394Z,13.35
2019-01-17T15:29:15.943Z,12.63
2019-01-17T15:35:18.192Z,13.62
2019-01-17T15:41:20.752Z,11.70
2019-01-17T15:47:23.022Z,12.03
2019-01-17T15:53:25.113Z,16.05
2019-01-17T15:59:27.498Z,17.60
2019-01-17T16:05:29.788Z,22.62
2019-01-17T16:11:33.200Z,21.23
2019-01-17T16:17:35.727Z,15.88
2019-01-17T16:23:38.221Z,20.25
2019-01-17T16:29:40.796Z,18.45
2019-01-17T16:35:43.218Z,14.43
2019-01-17T16:41:46.691Z,12.58
2019-01-17T16:47:48.942Z,9.00
2019-01-17T16:53:52.353Z,8.33
2019-01-17T16:59:54.670Z,6.35
2019-01-17T17:05:58.055Z,7.65
2019-01-17T17:12:00.756Z,7.00
2019-01-17T17:18:03.915Z,4.20
2019-01-17T17:24:06.603Z,5.33
2019-01-17T17:30:19.560Z,6.20
2019-01-17T17:36:23.086Z,6.20
2019-01-17T17:42:26.379Z,6.50
2019-01-17T17:48:28.870Z,8.18
2019-01-17T17:54:31.236Z,8.25
2019-01-17T18:00:42.588Z,8.83
2019-01-17T18:06:44.868Z,8.45
2019-01-17T18:12:48.584Z,10.72
2019-01-17T18:18:52.001Z,8.58
2019-01-17T18:24:54.453Z,5.05
2019-01-17T18:30:56.726Z,6.05
2019-01-17T18:37:00.055Z,7.33
2019-01-17T18:43:03.467Z,8.93
2019-01-17T18:49:05.848Z,6.95
2019-01-17T18:55:08.185Z,9.85
2019-01-17T19:01:10.651Z,12.07
2019-01-17T19:07:14.557Z,12.20
2019-01-17T19:13:17.031Z,7.33
2019-01-17T19:19:20.276Z,6.00
2019-01-17T19:25:24.615Z,4.35
2019-01-17T19:31:26.735Z,6.42
2019-01-17T19:37:28.962Z,6.83
2019-01-17T19:43:31.346Z,6.33
2019-01-17T19:49:33.786Z,7.35
2019-01-17T19:55:36.072Z,5.53
2019-01-17T20:01:38.568Z,3.05
2019-01-17T20:07:40.951Z,3.22
2019-01-17T20:13:43.167Z,2.15
2019-01-17T20:19:45.514Z,2.87
2019-01-17T20:25:48.720Z,3.50
2019-01-17T20:31:51.059Z,3.70
2019-01-17T20:37:53.303Z,3.58
2019-01-17T20:43:55.771Z,2.72
2019-01-17T20:49:58.251Z,1.87
2019-01-17T20:56:00.517Z,2.02
2019-01-17T21:02:23.503Z,2.22
2019-01-17T21:08:25.968Z,1.55
2019-01-17T21:14:28.309Z,1.50
2019-01-17T21:20:30.815Z,2.17
2019-01-17T21:26:33.062Z,1.70
2019-01-17T21:32:37.127Z,1.62
2019-01-17T21:38:41.636Z,1.85
2019-01-17T21:44:43.871Z,1.90
2019-01-17T21:50:47.977Z,2.50
2019-01-17T21:56:50.396Z,3.22
2019-01-17T22:02:52.855Z,2.33
2019-01-17T22:08:57.059Z,2.72
2019-01-17T22:14:59.202Z,2.40
2019-01-17T22:21:02.652Z,2.10
2019-01-17T22:27:04.824Z,3.02
2019-01-17T22:33:08.341Z,4.00
2019-01-17T22:39:14.471Z,3.25
2019-01-17T22:45:24.782Z,5.62
2019-01-17T22:51:26.950Z,1.52
2019-01-17T22:57:29.240Z,1.30
2019-01-17T23:03:39.878Z,1.22
2019-01-17T23:09:43.344Z,1.40
2019-01-17T23:15:45.848Z,2.02
2019-01-17T23:21:48.575Z,1.30
2019-01-17T23:27:50.825Z,1.65
2019-01-17T23:33:53.198Z,1.45
2019-01-17T23:39:55.384Z,1.80
2019-01-17T23:45:58.439Z,1.70
2019-01-17T23:52:02.679Z,1.27
2019-01-17T23:58:05.188Z,4.90
